CSN6904 ZSPD-ZPPP
Flight info
| Callsign | CSN6904 |
|---|---|
| Flight time | 2h 43m |
| Altitude | 34100 |
| Route | DCT POMOK G330 UNTAN G345 ZJ G345 OLRIS R343 MADUK W51 LEGIV W164 ADGOL W50 XSH W80 IDGAG A581 QNX W136 XISLI XIS1L |
| Aircraft | A320/M-SDE3FGHIRWY/LB1 |
Departure
| Time | 2026-05-05 09:36 |
|---|---|
| Airport | Shanghai Pudong International Airport (ZSPD) |
Arrival
| Time | 2026-05-05 12:20 |
|---|---|
| Airport | Kunming Changshui International Airport (ZPPP) |
| Time | Latitude | Longitude | Altitude | Speed | Heading |
|---|---|---|---|---|---|
| 2026-05-05 08:54 | 31.14731 | 121.80959 | 23 ft | 0 kts | 296° |
| 2026-05-05 09:21 | 31.14730 | 121.80960 | 23 ft | 2 kts | 296° |
| 2026-05-05 09:21 | 31.14719 | 121.80987 | 23 ft | 4 kts | 297° |
| 2026-05-05 09:22 | 31.14706 | 121.81015 | 25 ft | 4 kts | 297° |
| 2026-05-05 09:22 | 31.14697 | 121.81038 | 24 ft | 4 kts | 291° |
| 2026-05-05 09:22 | 31.14689 | 121.81068 | 25 ft | 4 kts | 276° |
| 2026-05-05 09:22 | 31.14690 | 121.81098 | 24 ft | 3 kts | 253° |
| 2026-05-05 09:23 | 31.14692 | 121.81106 | 23 ft | 0 kts | 252° |
| 2026-05-05 09:27 | 31.14669 | 121.81093 | 25 ft | 0 kts | 190° |
| 2026-05-05 09:28 | 31.14660 | 121.81094 | 23 ft | 4 kts | 170° |
| 2026-05-05 09:28 | 31.14629 | 121.81105 | 23 ft | 10 kts | 162° |
| 2026-05-05 09:28 | 31.14610 | 121.81112 | 23 ft | 1 kts | 161° |
| 2026-05-05 09:28 | 31.14555 | 121.81129 | 23 ft | 15 kts | 178° |
| 2026-05-05 09:29 | 31.14485 | 121.81001 | 23 ft | 26 kts | 252° |
| 2026-05-05 09:29 | 31.14451 | 121.80878 | 25 ft | 16 kts | 252° |
| 2026-05-05 09:29 | 31.14419 | 121.80765 | 24 ft | 11 kts | 251° |
| 2026-05-05 09:29 | 31.14399 | 121.80695 | 23 ft | 8 kts | 251° |
| 2026-05-05 09:30 | 31.14379 | 121.80624 | 23 ft | 20 kts | 251° |
| 2026-05-05 09:30 | 31.14335 | 121.80465 | 23 ft | 30 kts | 253° |
| 2026-05-05 09:30 | 31.14252 | 121.80173 | 25 ft | 38 kts | 251° |
| 2026-05-05 09:30 | 31.14144 | 121.79787 | 24 ft | 52 kts | 251° |
| 2026-05-05 09:31 | 31.14193 | 121.79549 | 23 ft | 30 kts | 348° |
| 2026-05-05 09:31 | 31.14394 | 121.79470 | 23 ft | 31 kts | 340° |
| 2026-05-05 09:31 | 31.14647 | 121.79373 | 23 ft | 47 kts | 342° |
| 2026-05-05 09:31 | 31.14951 | 121.79261 | 23 ft | 38 kts | 342° |
| 2026-05-05 09:32 | 31.15101 | 121.79206 | 24 ft | 29 kts | 342° |
| 2026-05-05 09:32 | 31.15321 | 121.79127 | 23 ft | 42 kts | 342° |
| 2026-05-05 09:32 | 31.15650 | 121.78996 | 22 ft | 57 kts | 341° |
| 2026-05-05 09:32 | 31.16002 | 121.78866 | 23 ft | 24 kts | 343° |
| 2026-05-05 09:33 | 31.16101 | 121.78828 | 23 ft | 0 kts | 341° |
| 2026-05-05 09:34 | 31.16102 | 121.78828 | 23 ft | 1 kts | 341° |
| 2026-05-05 09:34 | 31.16106 | 121.78826 | 25 ft | 1 kts | 341° |
| 2026-05-05 09:34 | 31.16119 | 121.78820 | 23 ft | 0 kts | 337° |
| 2026-05-05 09:35 | 31.16129 | 121.78812 | 23 ft | 0 kts | 323° |
| 2026-05-05 09:35 | 31.16131 | 121.78687 | 23 ft | 12 kts | 252° |
| 2026-05-05 09:35 | 31.16024 | 121.78640 | 22 ft | 27 kts | 160° |
| 2026-05-05 09:36 | 31.15621 | 121.78796 | 22 ft | 100 kts | 162° |
| 2026-05-05 09:36 | 31.14747 | 121.79133 | 27 ft | 161 kts | 162° |
| 2026-05-05 09:36 | 31.13626 | 121.79562 | 614 ft | 170 kts | 159° |
| 2026-05-05 09:36 | 31.12563 | 121.80058 | 1529 ft | 160 kts | 159° |
| 2026-05-05 09:37 | 31.11547 | 121.80556 | 2317 ft | 162 kts | 167° |
| 2026-05-05 09:37 | 31.10419 | 121.80375 | 2774 ft | 178 kts | 215° |
| 2026-05-05 09:37 | 31.09697 | 121.79146 | 3237 ft | 192 kts | 248° |
| 2026-05-05 09:37 | 31.09546 | 121.77584 | 3681 ft | 198 kts | 272° |
| 2026-05-05 09:38 | 31.10023 | 121.76065 | 4130 ft | 203 kts | 299° |
| 2026-05-05 09:38 | 31.10813 | 121.74653 | 4577 ft | 213 kts | 300° |
| 2026-05-05 09:38 | 31.11641 | 121.73152 | 5036 ft | 227 kts | 300° |
| 2026-05-05 09:38 | 31.12522 | 121.71544 | 5491 ft | 243 kts | 300° |
| 2026-05-05 09:39 | 31.13425 | 121.69813 | 6094 ft | 248 kts | 291° |
| 2026-05-05 09:39 | 31.13606 | 121.67924 | 7121 ft | 232 kts | 253° |
| 2026-05-05 09:39 | 31.12843 | 121.66314 | 7861 ft | 232 kts | 231° |
| 2026-05-05 09:39 | 31.11912 | 121.64714 | 8311 ft | 246 kts | 241° |
| 2026-05-05 09:40 | 31.10915 | 121.63020 | 8775 ft | 261 kts | 231° |
| 2026-05-05 09:40 | 31.09724 | 121.61378 | 9244 ft | 276 kts | 230° |
| 2026-05-05 09:40 | 31.08443 | 121.59676 | 9713 ft | 282 kts | 229° |
| 2026-05-05 09:40 | 31.07130 | 121.57957 | 10159 ft | 287 kts | 229° |
| 2026-05-05 09:41 | 31.05771 | 121.56179 | 10590 ft | 300 kts | 229° |
| 2026-05-05 09:41 | 31.04347 | 121.54328 | 11027 ft | 313 kts | 230° |
| 2026-05-05 09:41 | 31.02852 | 121.52419 | 11466 ft | 324 kts | 229° |
| 2026-05-05 09:41 | 31.01303 | 121.50452 | 11923 ft | 333 kts | 229° |
| 2026-05-05 09:42 | 30.99707 | 121.48462 | 12376 ft | 337 kts | 229° |
| 2026-05-05 09:42 | 30.98096 | 121.46459 | 12838 ft | 341 kts | 229° |
| 2026-05-05 09:42 | 30.96478 | 121.44421 | 13306 ft | 344 kts | 230° |
| 2026-05-05 09:42 | 30.94839 | 121.42371 | 13778 ft | 347 kts | 229° |
| 2026-05-05 09:43 | 30.93289 | 121.40212 | 14245 ft | 349 kts | 235° |
| 2026-05-05 09:43 | 30.91852 | 121.37910 | 14793 ft | 353 kts | 236° |
| 2026-05-05 09:43 | 30.90417 | 121.35573 | 15384 ft | 356 kts | 236° |
| 2026-05-05 09:43 | 30.88973 | 121.33231 | 15990 ft | 357 kts | 236° |
| 2026-05-05 09:44 | 30.87516 | 121.30870 | 16554 ft | 360 kts | 236° |
| 2026-05-05 09:44 | 30.86054 | 121.28488 | 17114 ft | 363 kts | 236° |
| 2026-05-05 09:44 | 30.84582 | 121.26092 | 17678 ft | 365 kts | 236° |
| 2026-05-05 09:44 | 30.83101 | 121.23674 | 18242 ft | 368 kts | 236° |
| 2026-05-05 09:45 | 30.81649 | 121.21201 | 18706 ft | 371 kts | 239° |
| 2026-05-05 09:45 | 30.80259 | 121.18657 | 19211 ft | 374 kts | 239° |
| 2026-05-05 09:45 | 30.78868 | 121.16086 | 19739 ft | 377 kts | 239° |
| 2026-05-05 09:45 | 30.77474 | 121.13497 | 20280 ft | 379 kts | 240° |
| 2026-05-05 09:46 | 30.76295 | 121.10799 | 20804 ft | 380 kts | 247° |
| 2026-05-05 09:46 | 30.75218 | 121.07982 | 21320 ft | 382 kts | 247° |
| 2026-05-05 09:46 | 30.74148 | 121.05139 | 21828 ft | 385 kts | 248° |
| 2026-05-05 09:46 | 30.73116 | 121.02256 | 22183 ft | 392 kts | 248° |
| 2026-05-05 09:47 | 30.72054 | 120.99285 | 22309 ft | 404 kts | 248° |
| 2026-05-05 09:47 | 30.70967 | 120.96230 | 22445 ft | 415 kts | 248° |
| 2026-05-05 09:47 | 30.69851 | 120.93091 | 22582 ft | 425 kts | 248° |
| 2026-05-05 09:47 | 30.68708 | 120.89886 | 22717 ft | 435 kts | 248° |
| 2026-05-05 09:48 | 30.67540 | 120.86609 | 22849 ft | 444 kts | 248° |
| 2026-05-05 09:48 | 30.66350 | 120.83265 | 22982 ft | 452 kts | 248° |
| 2026-05-05 09:48 | 30.65140 | 120.79867 | 23144 ft | 458 kts | 248° |
| 2026-05-05 09:48 | 30.63919 | 120.76434 | 23439 ft | 462 kts | 248° |
| 2026-05-05 09:49 | 30.62691 | 120.72977 | 23732 ft | 464 kts | 248° |
| 2026-05-05 09:49 | 30.61461 | 120.69504 | 24035 ft | 466 kts | 249° |
| 2026-05-05 09:49 | 30.60571 | 120.65899 | 24322 ft | 466 kts | 262° |
| 2026-05-05 09:49 | 30.60201 | 120.62161 | 24627 ft | 467 kts | 264° |
| 2026-05-05 09:50 | 30.59879 | 120.58408 | 24935 ft | 468 kts | 264° |
| 2026-05-05 09:50 | 30.59520 | 120.54651 | 25241 ft | 469 kts | 262° |
| 2026-05-05 09:50 | 30.59052 | 120.50914 | 25685 ft | 466 kts | 261° |
| 2026-05-05 09:50 | 30.58584 | 120.47207 | 26196 ft | 463 kts | 261° |
| 2026-05-05 09:51 | 30.58120 | 120.43500 | 26526 ft | 464 kts | 261° |
| 2026-05-05 09:51 | 30.57659 | 120.39785 | 26858 ft | 466 kts | 261° |
| 2026-05-05 09:51 | 30.57195 | 120.36065 | 27194 ft | 467 kts | 262° |
| 2026-05-05 09:51 | 30.56726 | 120.32342 | 27586 ft | 466 kts | 262° |
| 2026-05-05 09:52 | 30.56260 | 120.28622 | 28029 ft | 465 kts | 262° |
| 2026-05-05 09:52 | 30.55808 | 120.24967 | 28495 ft | 462 kts | 262° |
| 2026-05-05 09:52 | 30.55357 | 120.21287 | 28979 ft | 459 kts | 262° |
| 2026-05-05 09:52 | 30.54913 | 120.17631 | 29471 ft | 457 kts | 262° |
| 2026-05-05 09:53 | 30.54476 | 120.13990 | 29974 ft | 455 kts | 262° |
| 2026-05-05 09:53 | 30.54046 | 120.10367 | 30405 ft | 452 kts | 262° |
| 2026-05-05 09:53 | 30.53607 | 120.06759 | 30837 ft | 450 kts | 262° |
| 2026-05-05 09:53 | 30.53167 | 120.03176 | 31267 ft | 448 kts | 262° |
| 2026-05-05 09:54 | 30.52731 | 119.99604 | 31702 ft | 446 kts | 262° |
| 2026-05-05 09:54 | 30.52302 | 119.96053 | 32151 ft | 444 kts | 262° |
| 2026-05-05 09:54 | 30.51776 | 119.92536 | 32605 ft | 441 kts | 258° |
| 2026-05-05 09:54 | 30.51142 | 119.89074 | 33047 ft | 438 kts | 257° |
| 2026-05-05 09:55 | 30.50512 | 119.85628 | 33497 ft | 436 kts | 258° |
| 2026-05-05 09:55 | 30.49886 | 119.82200 | 33934 ft | 435 kts | 258° |
| 2026-05-05 09:55 | 30.48605 | 119.75329 | 34042 ft | 436 kts | 258° |
| 2026-05-05 09:56 | 30.47322 | 119.68463 | 34049 ft | 436 kts | 258° |
| 2026-05-05 09:56 | 30.46047 | 119.61592 | 34049 ft | 436 kts | 258° |
| 2026-05-05 09:57 | 30.44994 | 119.55876 | 34044 ft | 437 kts | 258° |
| 2026-05-05 09:57 | 30.43467 | 119.47813 | 34045 ft | 440 kts | 258° |
| 2026-05-05 09:58 | 30.42353 | 119.42067 | 34045 ft | 440 kts | 258° |
| 2026-05-05 09:58 | 30.40792 | 119.34016 | 34043 ft | 441 kts | 258° |
| 2026-05-05 09:59 | 30.39663 | 119.28205 | 34041 ft | 441 kts | 258° |
| 2026-05-05 09:59 | 30.38308 | 119.21271 | 34047 ft | 442 kts | 258° |
| 2026-05-05 10:00 | 30.36923 | 119.14331 | 34043 ft | 443 kts | 258° |
| 2026-05-05 10:00 | 30.35547 | 119.07413 | 34034 ft | 444 kts | 258° |
| 2026-05-05 10:01 | 30.34161 | 119.00442 | 34044 ft | 445 kts | 258° |
| 2026-05-05 10:01 | 30.32769 | 118.93463 | 34043 ft | 445 kts | 258° |
| 2026-05-05 10:02 | 30.31351 | 118.86480 | 34037 ft | 446 kts | 258° |
| 2026-05-05 10:02 | 30.29930 | 118.79481 | 34031 ft | 447 kts | 258° |
| 2026-05-05 10:03 | 30.28521 | 118.72479 | 34041 ft | 447 kts | 258° |
| 2026-05-05 10:03 | 30.27113 | 118.65479 | 34050 ft | 446 kts | 258° |
| 2026-05-05 10:04 | 30.25680 | 118.58489 | 34044 ft | 447 kts | 258° |
| 2026-05-05 10:04 | 30.24246 | 118.51492 | 34043 ft | 448 kts | 258° |
| 2026-05-05 10:05 | 30.22792 | 118.44487 | 34048 ft | 448 kts | 257° |
| 2026-05-05 10:05 | 30.21254 | 118.37509 | 34043 ft | 448 kts | 257° |
| 2026-05-05 10:06 | 30.19685 | 118.30529 | 34038 ft | 449 kts | 257° |
| 2026-05-05 10:06 | 30.18098 | 118.23540 | 34035 ft | 450 kts | 257° |
| 2026-05-05 10:07 | 30.16537 | 118.16579 | 34036 ft | 450 kts | 257° |
| 2026-05-05 10:07 | 30.14974 | 118.09584 | 34054 ft | 449 kts | 257° |
| 2026-05-05 10:08 | 30.13409 | 118.02598 | 34048 ft | 449 kts | 257° |
| 2026-05-05 10:08 | 30.11819 | 117.95615 | 34045 ft | 450 kts | 257° |
| 2026-05-05 10:09 | 30.10227 | 117.88620 | 34044 ft | 450 kts | 257° |
| 2026-05-05 10:09 | 30.08638 | 117.81619 | 34047 ft | 451 kts | 257° |
| 2026-05-05 10:10 | 30.07047 | 117.74614 | 34047 ft | 451 kts | 257° |
| 2026-05-05 10:10 | 30.05455 | 117.67610 | 34051 ft | 451 kts | 257° |
| 2026-05-05 10:11 | 30.03876 | 117.60605 | 34059 ft | 450 kts | 257° |
| 2026-05-05 10:11 | 30.02315 | 117.53622 | 34067 ft | 449 kts | 257° |
| 2026-05-05 10:12 | 30.00772 | 117.46690 | 34065 ft | 448 kts | 257° |
| 2026-05-05 10:12 | 29.99195 | 117.39742 | 34050 ft | 449 kts | 257° |
| 2026-05-05 10:13 | 29.97619 | 117.32836 | 34046 ft | 433 kts | 257° |
| 2026-05-05 10:13 | 29.96869 | 117.29539 | 34049 ft | 419 kts | 257° |
| 2026-05-05 10:13 | 29.96132 | 117.26318 | 34036 ft | 413 kts | 257° |
| 2026-05-05 10:14 | 29.94674 | 117.19940 | 34043 ft | 410 kts | 257° |
| 2026-05-05 10:14 | 29.93205 | 117.13594 | 34044 ft | 410 kts | 257° |
| 2026-05-05 10:15 | 29.91713 | 117.07242 | 34040 ft | 410 kts | 257° |
| 2026-05-05 10:15 | 29.90227 | 117.00916 | 34042 ft | 409 kts | 257° |
| 2026-05-05 10:16 | 29.88736 | 116.94589 | 34042 ft | 409 kts | 257° |
| 2026-05-05 10:16 | 29.87262 | 116.88308 | 34045 ft | 409 kts | 257° |
| 2026-05-05 10:17 | 29.85767 | 116.81983 | 34035 ft | 410 kts | 257° |
| 2026-05-05 10:17 | 29.84253 | 116.75655 | 34031 ft | 410 kts | 257° |
| 2026-05-05 10:18 | 29.82742 | 116.69308 | 34031 ft | 411 kts | 257° |
| 2026-05-05 10:18 | 29.81234 | 116.62960 | 34032 ft | 411 kts | 257° |
| 2026-05-05 10:19 | 29.79731 | 116.56610 | 34034 ft | 411 kts | 257° |
| 2026-05-05 10:19 | 29.78201 | 116.50265 | 34015 ft | 411 kts | 257° |
| 2026-05-05 10:20 | 29.76657 | 116.43925 | 34032 ft | 411 kts | 257° |
| 2026-05-05 10:20 | 29.75115 | 116.37590 | 34032 ft | 411 kts | 257° |
| 2026-05-05 10:21 | 29.73587 | 116.31302 | 34038 ft | 411 kts | 257° |
| 2026-05-05 10:21 | 29.72050 | 116.24975 | 34027 ft | 411 kts | 257° |
| 2026-05-05 10:22 | 29.70493 | 116.18648 | 34028 ft | 411 kts | 257° |
| 2026-05-05 10:22 | 29.68930 | 116.12318 | 34023 ft | 412 kts | 257° |
| 2026-05-05 10:23 | 29.67369 | 116.05985 | 34027 ft | 412 kts | 257° |
| 2026-05-05 10:23 | 29.65809 | 115.99649 | 34023 ft | 412 kts | 257° |
| 2026-05-05 10:24 | 29.64242 | 115.93317 | 34010 ft | 412 kts | 258° |
| 2026-05-05 10:24 | 29.62637 | 115.87008 | 34014 ft | 411 kts | 257° |
| 2026-05-05 10:25 | 29.61029 | 115.80700 | 34021 ft | 411 kts | 257° |
| 2026-05-05 10:25 | 29.59436 | 115.74442 | 34019 ft | 411 kts | 258° |
| 2026-05-05 10:26 | 29.57834 | 115.68141 | 34020 ft | 411 kts | 257° |
| 2026-05-05 10:26 | 29.56231 | 115.61845 | 34004 ft | 411 kts | 258° |
| 2026-05-05 10:27 | 29.54579 | 115.55552 | 34003 ft | 412 kts | 258° |
| 2026-05-05 10:27 | 29.52923 | 115.49256 | 34000 ft | 412 kts | 258° |
| 2026-05-05 10:28 | 29.51261 | 115.42952 | 34009 ft | 412 kts | 258° |
| 2026-05-05 10:28 | 29.49601 | 115.36653 | 34009 ft | 412 kts | 258° |
| 2026-05-05 10:29 | 29.47935 | 115.30366 | 34000 ft | 412 kts | 258° |
| 2026-05-05 10:29 | 29.46215 | 115.24095 | 33995 ft | 412 kts | 258° |
| 2026-05-05 10:30 | 29.44505 | 115.17858 | 34000 ft | 412 kts | 258° |
| 2026-05-05 10:30 | 29.42781 | 115.11582 | 34001 ft | 413 kts | 258° |
| 2026-05-05 10:31 | 29.41059 | 115.05298 | 34004 ft | 412 kts | 258° |
| 2026-05-05 10:31 | 29.39332 | 114.99026 | 33976 ft | 414 kts | 258° |
| 2026-05-05 10:32 | 29.37507 | 114.92743 | 33993 ft | 416 kts | 258° |
| 2026-05-05 10:32 | 29.35674 | 114.86448 | 33965 ft | 417 kts | 258° |
| 2026-05-05 10:33 | 29.33811 | 114.80147 | 33995 ft | 417 kts | 258° |
| 2026-05-05 10:33 | 29.31952 | 114.73850 | 34016 ft | 417 kts | 258° |
| 2026-05-05 10:34 | 29.30108 | 114.67555 | 34022 ft | 417 kts | 258° |
| 2026-05-05 10:34 | 29.28263 | 114.61271 | 34021 ft | 416 kts | 258° |
| 2026-05-05 10:35 | 29.26437 | 114.55028 | 34022 ft | 416 kts | 258° |
| 2026-05-05 10:35 | 29.24596 | 114.48747 | 34023 ft | 416 kts | 258° |
| 2026-05-05 10:36 | 29.22762 | 114.42463 | 34025 ft | 416 kts | 258° |
| 2026-05-05 10:36 | 29.20937 | 114.36187 | 33999 ft | 416 kts | 258° |
| 2026-05-05 10:37 | 29.19076 | 114.29914 | 33992 ft | 416 kts | 258° |
| 2026-05-05 10:37 | 29.17199 | 114.23650 | 33996 ft | 416 kts | 258° |
| 2026-05-05 10:38 | 29.15328 | 114.17383 | 34010 ft | 416 kts | 258° |
| 2026-05-05 10:38 | 29.13476 | 114.11131 | 34012 ft | 414 kts | 258° |
| 2026-05-05 10:39 | 29.11611 | 114.04881 | 34001 ft | 416 kts | 258° |
| 2026-05-05 10:39 | 29.09716 | 113.98635 | 34003 ft | 416 kts | 258° |
| 2026-05-05 10:40 | 29.07815 | 113.92379 | 34010 ft | 417 kts | 258° |
| 2026-05-05 10:40 | 29.05912 | 113.86127 | 34006 ft | 416 kts | 258° |
| 2026-05-05 10:41 | 29.04031 | 113.79917 | 34006 ft | 416 kts | 258° |
| 2026-05-05 10:41 | 29.02135 | 113.73668 | 33982 ft | 416 kts | 258° |
| 2026-05-05 10:42 | 28.99260 | 113.64295 | 33992 ft | 417 kts | 258° |
| 2026-05-05 10:43 | 28.97346 | 113.58041 | 33993 ft | 417 kts | 258° |
| 2026-05-05 10:43 | 28.95443 | 113.51788 | 33991 ft | 416 kts | 258° |
| 2026-05-05 10:44 | 28.93540 | 113.45542 | 33987 ft | 417 kts | 258° |
| 2026-05-05 10:44 | 28.91626 | 113.39287 | 33973 ft | 417 kts | 258° |
| 2026-05-05 10:45 | 28.89705 | 113.33047 | 33975 ft | 417 kts | 258° |
| 2026-05-05 10:45 | 28.87789 | 113.26800 | 33978 ft | 417 kts | 258° |
| 2026-05-05 10:46 | 28.85882 | 113.20560 | 33969 ft | 416 kts | 258° |
| 2026-05-05 10:46 | 28.83993 | 113.14370 | 33983 ft | 416 kts | 258° |
| 2026-05-05 10:47 | 28.82097 | 113.08151 | 33962 ft | 415 kts | 258° |
| 2026-05-05 10:47 | 28.80198 | 113.01928 | 33967 ft | 415 kts | 258° |
| 2026-05-05 10:48 | 28.78302 | 112.95709 | 33969 ft | 416 kts | 258° |
| 2026-05-05 10:48 | 28.76406 | 112.89485 | 33972 ft | 416 kts | 258° |
| 2026-05-05 10:49 | 28.74514 | 112.83263 | 33969 ft | 416 kts | 258° |
| 2026-05-05 10:49 | 28.72621 | 112.77032 | 33961 ft | 416 kts | 258° |
| 2026-05-05 10:50 | 28.70727 | 112.70796 | 33956 ft | 417 kts | 258° |
| 2026-05-05 10:50 | 28.68831 | 112.64549 | 33942 ft | 417 kts | 258° |
| 2026-05-05 10:51 | 28.66960 | 112.58346 | 33969 ft | 417 kts | 258° |
| 2026-05-05 10:51 | 28.65078 | 112.52097 | 33970 ft | 417 kts | 258° |
| 2026-05-05 10:52 | 28.63200 | 112.45859 | 33975 ft | 417 kts | 258° |
| 2026-05-05 10:52 | 28.61320 | 112.39617 | 33958 ft | 417 kts | 258° |
| 2026-05-05 10:53 | 28.59437 | 112.33364 | 33963 ft | 418 kts | 258° |
| 2026-05-05 10:53 | 28.57550 | 112.27096 | 33966 ft | 419 kts | 258° |
| 2026-05-05 10:54 | 28.55667 | 112.20828 | 33967 ft | 419 kts | 258° |
| 2026-05-05 10:54 | 28.53783 | 112.14558 | 33960 ft | 419 kts | 258° |
| 2026-05-05 10:55 | 28.51904 | 112.08292 | 33932 ft | 419 kts | 258° |
| 2026-05-05 10:55 | 28.50358 | 112.03082 | 33943 ft | 418 kts | 258° |
| 2026-05-05 10:56 | 28.48200 | 111.95803 | 33951 ft | 418 kts | 258° |
| 2026-05-05 10:56 | 28.46345 | 111.89540 | 33954 ft | 418 kts | 258° |
| 2026-05-05 10:57 | 28.44793 | 111.84296 | 33970 ft | 418 kts | 259° |
| 2026-05-05 10:57 | 28.42643 | 111.77024 | 33932 ft | 418 kts | 259° |
| 2026-05-05 10:58 | 28.40811 | 111.70759 | 33935 ft | 419 kts | 259° |
| 2026-05-05 10:58 | 28.39289 | 111.65539 | 33939 ft | 419 kts | 259° |
| 2026-05-05 10:59 | 28.37458 | 111.59250 | 33953 ft | 419 kts | 259° |
| 2026-05-05 10:59 | 28.35625 | 111.52970 | 33951 ft | 419 kts | 259° |
| 2026-05-05 11:00 | 28.33800 | 111.46678 | 33964 ft | 419 kts | 259° |
| 2026-05-05 11:00 | 28.31991 | 111.40388 | 33970 ft | 419 kts | 259° |
| 2026-05-05 11:01 | 28.30180 | 111.34101 | 33982 ft | 419 kts | 259° |
| 2026-05-05 11:01 | 28.28366 | 111.27838 | 33976 ft | 418 kts | 259° |
| 2026-05-05 11:02 | 28.26564 | 111.21563 | 33974 ft | 419 kts | 259° |
| 2026-05-05 11:02 | 28.24778 | 111.15326 | 33975 ft | 419 kts | 259° |
| 2026-05-05 11:03 | 28.22990 | 111.09044 | 33948 ft | 419 kts | 259° |
| 2026-05-05 11:03 | 28.21218 | 111.02752 | 33951 ft | 419 kts | 259° |
| 2026-05-05 11:04 | 28.19443 | 110.96463 | 33959 ft | 419 kts | 259° |
| 2026-05-05 11:04 | 28.17668 | 110.90172 | 33962 ft | 419 kts | 259° |
| 2026-05-05 11:05 | 28.15906 | 110.83872 | 33949 ft | 419 kts | 259° |
| 2026-05-05 11:05 | 28.14157 | 110.77575 | 33934 ft | 419 kts | 259° |
| 2026-05-05 11:06 | 28.12412 | 110.71263 | 33935 ft | 420 kts | 259° |
| 2026-05-05 11:06 | 28.10671 | 110.64947 | 33940 ft | 420 kts | 259° |
| 2026-05-05 11:07 | 28.08936 | 110.58664 | 33942 ft | 421 kts | 259° |
| 2026-05-05 11:07 | 28.07191 | 110.52337 | 33946 ft | 421 kts | 259° |
| 2026-05-05 11:08 | 28.05447 | 110.46005 | 33927 ft | 422 kts | 259° |
| 2026-05-05 11:08 | 28.03697 | 110.39671 | 33930 ft | 422 kts | 259° |
| 2026-05-05 11:09 | 28.01947 | 110.33328 | 33937 ft | 422 kts | 259° |
| 2026-05-05 11:09 | 28.00206 | 110.26976 | 33939 ft | 423 kts | 259° |
| 2026-05-05 11:10 | 27.98465 | 110.20624 | 33936 ft | 422 kts | 259° |
| 2026-05-05 11:10 | 27.96745 | 110.14280 | 33941 ft | 422 kts | 259° |
| 2026-05-05 11:11 | 27.95035 | 110.07931 | 33935 ft | 422 kts | 259° |
| 2026-05-05 11:11 | 27.93328 | 110.01587 | 33932 ft | 422 kts | 259° |
| 2026-05-05 11:12 | 27.91631 | 109.95284 | 33935 ft | 422 kts | 259° |
| 2026-05-05 11:12 | 27.89929 | 109.88942 | 33939 ft | 422 kts | 259° |
| 2026-05-05 11:13 | 27.88226 | 109.82602 | 33941 ft | 422 kts | 259° |
| 2026-05-05 11:13 | 27.86523 | 109.76254 | 33937 ft | 422 kts | 259° |
| 2026-05-05 11:14 | 27.84822 | 109.69894 | 33939 ft | 423 kts | 259° |
| 2026-05-05 11:14 | 27.83123 | 109.63529 | 33950 ft | 423 kts | 259° |
| 2026-05-05 11:15 | 27.81423 | 109.57160 | 33937 ft | 423 kts | 259° |
| 2026-05-05 11:15 | 27.79744 | 109.50795 | 33945 ft | 422 kts | 259° |
| 2026-05-05 11:16 | 27.78076 | 109.44443 | 33937 ft | 421 kts | 259° |
| 2026-05-05 11:16 | 27.76422 | 109.38146 | 33942 ft | 422 kts | 259° |
| 2026-05-05 11:17 | 27.74752 | 109.31804 | 33946 ft | 421 kts | 259° |
| 2026-05-05 11:17 | 27.73094 | 109.25462 | 33944 ft | 421 kts | 259° |
| 2026-05-05 11:18 | 27.71441 | 109.19120 | 33947 ft | 421 kts | 259° |
| 2026-05-05 11:18 | 27.69783 | 109.12776 | 33949 ft | 421 kts | 259° |
| 2026-05-05 11:19 | 27.68136 | 109.06431 | 33945 ft | 422 kts | 259° |
| 2026-05-05 11:19 | 27.66474 | 109.00080 | 33946 ft | 422 kts | 259° |
| 2026-05-05 11:20 | 27.64826 | 108.93724 | 33961 ft | 422 kts | 259° |
| 2026-05-05 11:20 | 27.63187 | 108.87366 | 33947 ft | 422 kts | 259° |
| 2026-05-05 11:21 | 27.61551 | 108.81016 | 33964 ft | 422 kts | 259° |
| 2026-05-05 11:21 | 27.59921 | 108.74667 | 33959 ft | 421 kts | 259° |
| 2026-05-05 11:22 | 27.58309 | 108.68364 | 33971 ft | 422 kts | 259° |
| 2026-05-05 11:22 | 27.56687 | 108.62017 | 33973 ft | 421 kts | 259° |
| 2026-05-05 11:23 | 27.55076 | 108.55676 | 33973 ft | 421 kts | 259° |
| 2026-05-05 11:23 | 27.53455 | 108.49336 | 33976 ft | 421 kts | 259° |
| 2026-05-05 11:24 | 27.51843 | 108.43005 | 33977 ft | 421 kts | 259° |
| 2026-05-05 11:24 | 27.50220 | 108.36671 | 33963 ft | 421 kts | 259° |
| 2026-05-05 11:25 | 27.48584 | 108.30331 | 33965 ft | 421 kts | 259° |
| 2026-05-05 11:25 | 27.46966 | 108.23989 | 33971 ft | 421 kts | 259° |
| 2026-05-05 11:26 | 27.45352 | 108.17646 | 33973 ft | 422 kts | 259° |
| 2026-05-05 11:26 | 27.43731 | 108.11301 | 33963 ft | 422 kts | 259° |
| 2026-05-05 11:27 | 27.42115 | 108.04959 | 33976 ft | 421 kts | 259° |
| 2026-05-05 11:27 | 27.40509 | 107.98612 | 33973 ft | 421 kts | 259° |
| 2026-05-05 11:28 | 27.38907 | 107.92273 | 33978 ft | 422 kts | 259° |
| 2026-05-05 11:28 | 27.37314 | 107.85970 | 33983 ft | 421 kts | 260° |
| 2026-05-05 11:29 | 27.35709 | 107.79629 | 33979 ft | 421 kts | 260° |
| 2026-05-05 11:29 | 27.34108 | 107.73286 | 33972 ft | 422 kts | 260° |
| 2026-05-05 11:30 | 27.32497 | 107.66936 | 33972 ft | 423 kts | 260° |
| 2026-05-05 11:30 | 27.30882 | 107.60579 | 33974 ft | 423 kts | 260° |
| 2026-05-05 11:31 | 27.29271 | 107.54215 | 33988 ft | 423 kts | 260° |
| 2026-05-05 11:31 | 27.27661 | 107.47856 | 33988 ft | 422 kts | 260° |
| 2026-05-05 11:32 | 27.26056 | 107.41499 | 33991 ft | 423 kts | 260° |
| 2026-05-05 11:32 | 27.24460 | 107.35135 | 33995 ft | 423 kts | 260° |
| 2026-05-05 11:33 | 27.22880 | 107.28780 | 33995 ft | 422 kts | 260° |
| 2026-05-05 11:33 | 27.21313 | 107.22472 | 34010 ft | 422 kts | 260° |
| 2026-05-05 11:34 | 27.19744 | 107.16127 | 34005 ft | 422 kts | 260° |
| 2026-05-05 11:34 | 27.18168 | 107.09782 | 34009 ft | 421 kts | 260° |
| 2026-05-05 11:35 | 27.16596 | 107.03449 | 34006 ft | 421 kts | 260° |
| 2026-05-05 11:35 | 27.15062 | 106.97117 | 34017 ft | 420 kts | 260° |
| 2026-05-05 11:36 | 27.13537 | 106.90800 | 34014 ft | 419 kts | 260° |
| 2026-05-05 11:36 | 27.12018 | 106.84493 | 34013 ft | 418 kts | 260° |
| 2026-05-05 11:37 | 27.10508 | 106.78204 | 34008 ft | 417 kts | 260° |
| 2026-05-05 11:37 | 27.08999 | 106.71909 | 34002 ft | 418 kts | 260° |
| 2026-05-05 11:38 | 27.07530 | 106.65661 | 33997 ft | 416 kts | 260° |
| 2026-05-05 11:38 | 27.06134 | 106.59369 | 33992 ft | 415 kts | 260° |
| 2026-05-05 11:39 | 27.04766 | 106.53086 | 34004 ft | 414 kts | 260° |
| 2026-05-05 11:39 | 27.03402 | 106.46810 | 33997 ft | 414 kts | 260° |
| 2026-05-05 11:40 | 27.02037 | 106.40543 | 33995 ft | 414 kts | 260° |
| 2026-05-05 11:40 | 27.00674 | 106.34277 | 33981 ft | 413 kts | 260° |
| 2026-05-05 11:41 | 26.99367 | 106.28003 | 33987 ft | 413 kts | 260° |
| 2026-05-05 11:41 | 26.98080 | 106.21719 | 33986 ft | 414 kts | 260° |
| 2026-05-05 11:42 | 26.96799 | 106.15433 | 33977 ft | 414 kts | 260° |
| 2026-05-05 11:42 | 26.95523 | 106.09181 | 33979 ft | 414 kts | 260° |
| 2026-05-05 11:43 | 26.94242 | 106.02893 | 33977 ft | 414 kts | 260° |
| 2026-05-05 11:43 | 26.92967 | 105.96594 | 33971 ft | 415 kts | 260° |
| 2026-05-05 11:44 | 26.91712 | 105.90285 | 33961 ft | 415 kts | 260° |
| 2026-05-05 11:44 | 26.90460 | 105.83959 | 33960 ft | 416 kts | 260° |
| 2026-05-05 11:45 | 26.89212 | 105.77632 | 33956 ft | 416 kts | 260° |
| 2026-05-05 11:45 | 26.87967 | 105.71294 | 33939 ft | 417 kts | 260° |
| 2026-05-05 11:46 | 26.86692 | 105.64959 | 33939 ft | 417 kts | 260° |
| 2026-05-05 11:46 | 26.85408 | 105.58657 | 33926 ft | 418 kts | 260° |
| 2026-05-05 11:47 | 26.84092 | 105.52313 | 33936 ft | 419 kts | 260° |
| 2026-05-05 11:47 | 26.82772 | 105.45955 | 33929 ft | 419 kts | 260° |
| 2026-05-05 11:48 | 26.80796 | 105.36412 | 33934 ft | 420 kts | 260° |
| 2026-05-05 11:48 | 26.79487 | 105.30043 | 33920 ft | 420 kts | 260° |
| 2026-05-05 11:49 | 26.78131 | 105.23692 | 33925 ft | 420 kts | 260° |
| 2026-05-05 11:49 | 26.77430 | 105.20516 | 33729 ft | 421 kts | 260° |
| 2026-05-05 11:49 | 26.76721 | 105.17266 | 32222 ft | 439 kts | 260° |
| 2026-05-05 11:50 | 26.76015 | 105.13874 | 30775 ft | 456 kts | 260° |
| 2026-05-05 11:50 | 26.75319 | 105.10352 | 29310 ft | 471 kts | 260° |
| 2026-05-05 11:50 | 26.74640 | 105.06759 | 28585 ft | 468 kts | 260° |
| 2026-05-05 11:50 | 26.73986 | 105.03250 | 27376 ft | 472 kts | 260° |
| 2026-05-05 11:51 | 26.73326 | 104.99614 | 26070 ft | 481 kts | 260° |
| 2026-05-05 11:51 | 26.72683 | 104.95980 | 25277 ft | 474 kts | 260° |
| 2026-05-05 11:51 | 26.72045 | 104.92325 | 23942 ft | 483 kts | 260° |
| 2026-05-05 11:51 | 26.71417 | 104.88637 | 23125 ft | 478 kts | 260° |
| 2026-05-05 11:52 | 26.70808 | 104.85023 | 22346 ft | 469 kts | 260° |
| 2026-05-05 11:52 | 26.70210 | 104.81468 | 21509 ft | 461 kts | 260° |
| 2026-05-05 11:52 | 26.69628 | 104.77969 | 20668 ft | 454 kts | 260° |
| 2026-05-05 11:52 | 26.69059 | 104.74518 | 19973 ft | 445 kts | 260° |
| 2026-05-05 11:53 | 26.68512 | 104.71209 | 19948 ft | 421 kts | 260° |
| 2026-05-05 11:53 | 26.67988 | 104.68076 | 19943 ft | 399 kts | 260° |
| 2026-05-05 11:53 | 26.67489 | 104.65103 | 19940 ft | 380 kts | 260° |
| 2026-05-05 11:53 | 26.67012 | 104.62261 | 19951 ft | 363 kts | 261° |
| 2026-05-05 11:54 | 26.66552 | 104.59554 | 19948 ft | 346 kts | 261° |
| 2026-05-05 11:54 | 26.66108 | 104.56973 | 19948 ft | 331 kts | 260° |
| 2026-05-05 11:54 | 26.65826 | 104.55319 | 19948 ft | 325 kts | 260° |
| 2026-05-05 11:54 | 26.65407 | 104.52845 | 19945 ft | 323 kts | 261° |
| 2026-05-05 11:55 | 26.64714 | 104.49584 | 19965 ft | 324 kts | 248° |
| 2026-05-05 11:55 | 26.63946 | 104.48148 | 19963 ft | 328 kts | 233° |
| 2026-05-05 11:55 | 26.61532 | 104.46014 | 19969 ft | 336 kts | 215° |
| 2026-05-05 11:55 | 26.60200 | 104.45129 | 19966 ft | 337 kts | 215° |
| 2026-05-05 11:56 | 26.58186 | 104.43795 | 19982 ft | 336 kts | 215° |
| 2026-05-05 11:56 | 26.55530 | 104.42009 | 20016 ft | 337 kts | 216° |
| 2026-05-05 11:56 | 26.53531 | 104.40648 | 20012 ft | 337 kts | 216° |
| 2026-05-05 11:56 | 26.51566 | 104.39233 | 20034 ft | 336 kts | 218° |
| 2026-05-05 11:57 | 26.50260 | 104.38244 | 20049 ft | 336 kts | 218° |
| 2026-05-05 11:57 | 26.47709 | 104.36299 | 20085 ft | 335 kts | 218° |
| 2026-05-05 11:57 | 26.46419 | 104.35291 | 20134 ft | 334 kts | 222° |
| 2026-05-05 11:57 | 26.44668 | 104.33606 | 20157 ft | 332 kts | 226° |
| 2026-05-05 11:58 | 26.42986 | 104.31883 | 20165 ft | 332 kts | 226° |
| 2026-05-05 11:58 | 26.41294 | 104.30131 | 20192 ft | 332 kts | 226° |
| 2026-05-05 11:58 | 26.39603 | 104.28380 | 20214 ft | 332 kts | 226° |
| 2026-05-05 11:58 | 26.37913 | 104.26625 | 20246 ft | 333 kts | 226° |
| 2026-05-05 11:59 | 26.36213 | 104.24868 | 20324 ft | 332 kts | 226° |
| 2026-05-05 11:59 | 26.34514 | 104.23118 | 20562 ft | 333 kts | 226° |
| 2026-05-05 11:59 | 26.32811 | 104.21363 | 20806 ft | 335 kts | 226° |
| 2026-05-05 11:59 | 26.31104 | 104.19596 | 20895 ft | 335 kts | 226° |
| 2026-05-05 12:00 | 26.29401 | 104.17829 | 20917 ft | 334 kts | 226° |
| 2026-05-05 12:00 | 26.27609 | 104.16168 | 20940 ft | 335 kts | 225° |
| 2026-05-05 12:00 | 26.25884 | 104.14434 | 20932 ft | 334 kts | 226° |
| 2026-05-05 12:00 | 26.24178 | 104.12674 | 20931 ft | 334 kts | 226° |
| 2026-05-05 12:01 | 26.22477 | 104.10912 | 20930 ft | 334 kts | 226° |
| 2026-05-05 12:01 | 26.20775 | 104.09149 | 20929 ft | 334 kts | 226° |
| 2026-05-05 12:01 | 26.19071 | 104.07387 | 20929 ft | 334 kts | 226° |
| 2026-05-05 12:01 | 26.17367 | 104.05625 | 20942 ft | 334 kts | 226° |
| 2026-05-05 12:02 | 26.15661 | 104.03861 | 20953 ft | 336 kts | 225° |
| 2026-05-05 12:02 | 26.13762 | 104.02319 | 20956 ft | 340 kts | 216° |
| 2026-05-05 12:02 | 26.11752 | 104.00927 | 20958 ft | 341 kts | 216° |
| 2026-05-05 12:02 | 26.09729 | 103.99546 | 20958 ft | 341 kts | 216° |
| 2026-05-05 12:03 | 26.07733 | 103.98185 | 20959 ft | 341 kts | 216° |
| 2026-05-05 12:03 | 26.05710 | 103.96806 | 20974 ft | 341 kts | 216° |
| 2026-05-05 12:03 | 26.03693 | 103.95431 | 20969 ft | 341 kts | 216° |
| 2026-05-05 12:03 | 26.01670 | 103.94052 | 20972 ft | 341 kts | 216° |
| 2026-05-05 12:04 | 25.99649 | 103.92674 | 20987 ft | 341 kts | 216° |
| 2026-05-05 12:04 | 25.97627 | 103.91295 | 20986 ft | 341 kts | 216° |
| 2026-05-05 12:04 | 25.95608 | 103.89917 | 20984 ft | 341 kts | 216° |
| 2026-05-05 12:04 | 25.93587 | 103.88538 | 20992 ft | 341 kts | 216° |
| 2026-05-05 12:05 | 25.91566 | 103.87161 | 20998 ft | 341 kts | 216° |
| 2026-05-05 12:05 | 25.89551 | 103.85766 | 20992 ft | 340 kts | 219° |
| 2026-05-05 12:05 | 25.87736 | 103.84112 | 20994 ft | 338 kts | 225° |
| 2026-05-05 12:05 | 25.85981 | 103.82370 | 21000 ft | 339 kts | 225° |
| 2026-05-05 12:06 | 25.84228 | 103.80618 | 20996 ft | 339 kts | 226° |
| 2026-05-05 12:06 | 25.82476 | 103.78867 | 21006 ft | 339 kts | 226° |
| 2026-05-05 12:06 | 25.80722 | 103.77112 | 21025 ft | 339 kts | 226° |
| 2026-05-05 12:06 | 25.78973 | 103.75363 | 21016 ft | 339 kts | 226° |
| 2026-05-05 12:07 | 25.77222 | 103.73611 | 21020 ft | 339 kts | 226° |
| 2026-05-05 12:07 | 25.75493 | 103.71881 | 21022 ft | 339 kts | 226° |
| 2026-05-05 12:07 | 25.73745 | 103.70129 | 21023 ft | 339 kts | 226° |
| 2026-05-05 12:07 | 25.71997 | 103.68379 | 20911 ft | 337 kts | 226° |
| 2026-05-05 12:08 | 25.70263 | 103.66645 | 20522 ft | 335 kts | 226° |
| 2026-05-05 12:08 | 25.68540 | 103.64917 | 20146 ft | 333 kts | 225° |
| 2026-05-05 12:08 | 25.66815 | 103.63174 | 19560 ft | 339 kts | 226° |
| 2026-05-05 12:08 | 25.65063 | 103.61398 | 18984 ft | 343 kts | 225° |
| 2026-05-05 12:09 | 25.63299 | 103.59592 | 18405 ft | 348 kts | 226° |
| 2026-05-05 12:09 | 25.61521 | 103.57755 | 17745 ft | 351 kts | 225° |
| 2026-05-05 12:09 | 25.59731 | 103.55899 | 17097 ft | 354 kts | 226° |
| 2026-05-05 12:09 | 25.57921 | 103.54037 | 16452 ft | 356 kts | 226° |
| 2026-05-05 12:10 | 25.56104 | 103.52167 | 15828 ft | 357 kts | 226° |
| 2026-05-05 12:10 | 25.54283 | 103.50297 | 15207 ft | 357 kts | 226° |
| 2026-05-05 12:10 | 25.52454 | 103.48434 | 14629 ft | 357 kts | 226° |
| 2026-05-05 12:10 | 25.50617 | 103.46584 | 14043 ft | 357 kts | 226° |
| 2026-05-05 12:11 | 25.48769 | 103.44741 | 13403 ft | 357 kts | 226° |
| 2026-05-05 12:11 | 25.46932 | 103.42911 | 12745 ft | 354 kts | 225° |
| 2026-05-05 12:11 | 25.45209 | 103.40991 | 12105 ft | 349 kts | 236° |
| 2026-05-05 12:11 | 25.44151 | 103.38658 | 11494 ft | 343 kts | 252° |
| 2026-05-05 12:12 | 25.43426 | 103.36150 | 10876 ft | 341 kts | 253° |
| 2026-05-05 12:12 | 25.42745 | 103.33650 | 10301 ft | 338 kts | 253° |
| 2026-05-05 12:12 | 25.42091 | 103.31190 | 10020 ft | 327 kts | 254° |
| 2026-05-05 12:12 | 25.41540 | 103.28811 | 9921 ft | 311 kts | 262° |
| 2026-05-05 12:13 | 25.41325 | 103.26500 | 9937 ft | 294 kts | 264° |
| 2026-05-05 12:13 | 25.41175 | 103.24308 | 9939 ft | 279 kts | 264° |
| 2026-05-05 12:13 | 25.41031 | 103.22204 | 9934 ft | 271 kts | 261° |
| 2026-05-05 12:13 | 25.40360 | 103.20295 | 9967 ft | 270 kts | 236° |
| 2026-05-05 12:14 | 25.38982 | 103.18867 | 9964 ft | 275 kts | 219° |
| 2026-05-05 12:14 | 25.37402 | 103.17697 | 9709 ft | 272 kts | 216° |
| 2026-05-05 12:14 | 25.35839 | 103.16573 | 9516 ft | 262 kts | 216° |
| 2026-05-05 12:14 | 25.34420 | 103.15382 | 9379 ft | 252 kts | 223° |
| 2026-05-05 12:15 | 25.33098 | 103.14147 | 9241 ft | 246 kts | 222° |
| 2026-05-05 12:15 | 25.31782 | 103.12977 | 9125 ft | 239 kts | 221° |
| 2026-05-05 12:15 | 25.30496 | 103.11854 | 8999 ft | 232 kts | 221° |
| 2026-05-05 12:15 | 25.29238 | 103.10755 | 8747 ft | 230 kts | 221° |
| 2026-05-05 12:16 | 25.28010 | 103.09682 | 8536 ft | 226 kts | 221° |
| 2026-05-05 12:16 | 25.26778 | 103.08605 | 8271 ft | 225 kts | 220° |
| 2026-05-05 12:16 | 25.25548 | 103.07530 | 7997 ft | 226 kts | 220° |
| 2026-05-05 12:16 | 25.24313 | 103.06451 | 7622 ft | 228 kts | 219° |
| 2026-05-05 12:17 | 25.23074 | 103.05370 | 7322 ft | 225 kts | 219° |
| 2026-05-05 12:17 | 25.21845 | 103.04297 | 6972 ft | 226 kts | 219° |
| 2026-05-05 12:17 | 25.20625 | 103.03232 | 7024 ft | 219 kts | 218° |
| 2026-05-05 12:17 | 25.19410 | 103.02172 | 7238 ft | 225 kts | 219° |
| 2026-05-05 12:18 | 25.18166 | 103.01087 | 7505 ft | 228 kts | 219° |
| 2026-05-05 12:18 | 25.16925 | 103.00006 | 7772 ft | 222 kts | 220° |
| 2026-05-05 12:18 | 25.15739 | 102.98972 | 7868 ft | 216 kts | 220° |
| 2026-05-05 12:18 | 25.14575 | 102.97957 | 7649 ft | 210 kts | 219° |
| 2026-05-05 12:19 | 25.13461 | 102.96987 | 7346 ft | 196 kts | 219° |
| 2026-05-05 12:19 | 25.12442 | 102.96099 | 7094 ft | 176 kts | 218° |
| 2026-05-05 12:19 | 25.11512 | 102.95287 | 6898 ft | 166 kts | 218° |
| 2026-05-05 12:19 | 25.10647 | 102.94540 | 6891 ft | 133 kts | 217° |
| 2026-05-05 12:20 | 25.10159 | 102.94107 | 6894 ft | 52 kts | 219° |
| 2026-05-05 12:20 | 25.09975 | 102.93785 | 6893 ft | 49 kts | 246° |
| 2026-05-05 12:20 | 25.09829 | 102.93566 | 6894 ft | 35 kts | 212° |
| 2026-05-05 12:20 | 25.09713 | 102.93439 | 6895 ft | 15 kts | 267° |
| 2026-05-05 12:21 | 25.09662 | 102.93318 | 6896 ft | 21 kts | 226° |
| 2026-05-05 12:21 | 25.09651 | 102.93306 | 6896 ft | 0 kts | 226° |
| 2026-05-05 12:22 | 25.09648 | 102.93302 | 6896 ft | 3 kts | 226° |
| 2026-05-05 12:22 | 25.09610 | 102.93262 | 6896 ft | 11 kts | 219° |
| 2026-05-05 12:22 | 25.09540 | 102.93197 | 6896 ft | 14 kts | 220° |
| 2026-05-05 12:22 | 25.09474 | 102.93185 | 6896 ft | 10 kts | 141° |
| 2026-05-05 12:23 | 25.09462 | 102.93253 | 6897 ft | 10 kts | 56° |
| 2026-05-05 12:23 | 25.09516 | 102.93304 | 6896 ft | 11 kts | 38° |
| 2026-05-05 12:23 | 25.09604 | 102.93382 | 6896 ft | 20 kts | 39° |
| 2026-05-05 12:23 | 25.09722 | 102.93395 | 6895 ft | 19 kts | 317° |
| 2026-05-05 12:24 | 25.09806 | 102.93283 | 6896 ft | 19 kts | 309° |
| 2026-05-05 12:24 | 25.09890 | 102.93170 | 6897 ft | 19 kts | 312° |
| 2026-05-05 12:24 | 25.09932 | 102.93117 | 6897 ft | 3 kts | 310° |
| 2026-05-05 12:24 | 25.09943 | 102.93098 | 6897 ft | 3 kts | 295° |
| 2026-05-05 12:25 | 25.09946 | 102.93076 | 6897 ft | 3 kts | 268° |
| 2026-05-05 12:25 | 25.09936 | 102.93056 | 6898 ft | 3 kts | 236° |
| 2026-05-05 12:25 | 25.09918 | 102.93037 | 6898 ft | 4 kts | 223° |
| 2026-05-05 12:25 | 25.09896 | 102.93015 | 6898 ft | 0 kts | 218° |
| 2026-05-05 12:26 | 25.09893 | 102.93013 | 6898 ft | 1 kts | 218° |
| 2026-05-05 12:26 | 25.09890 | 102.93010 | 6898 ft | 0 kts | 218° |
| 2026-05-05 13:00 | 25.09900 | 102.92995 | 6899 ft | 3 kts | 350° |
| 2026-05-05 13:01 | 25.10126 | 102.93255 | 6897 ft | 30 kts | 82° |
| 2026-05-05 13:01 | 25.10195 | 102.93559 | 6895 ft | 48 kts | 56° |
| 2026-05-05 13:01 | 25.10468 | 102.93782 | 6894 ft | 48 kts | 27° |
| 2026-05-05 13:01 | 25.10578 | 102.93738 | 6895 ft | 16 kts | 287° |
| 2026-05-05 13:02 | 25.10654 | 102.93604 | 6896 ft | 30 kts | 307° |
| 2026-05-05 13:02 | 25.10828 | 102.93347 | 6900 ft | 53 kts | 306° |
| 2026-05-05 13:02 | 25.11098 | 102.92989 | 6921 ft | 65 kts | 309° |
| 2026-05-05 13:02 | 25.11221 | 102.92550 | 6904 ft | 60 kts | 257° |
| 2026-05-05 13:03 | 25.10973 | 102.92250 | 6911 ft | 31 kts | 200° |
| 2026-05-05 13:03 | 25.10841 | 102.92363 | 6915 ft | 26 kts | 132° |
| 2026-05-05 13:03 | 25.10712 | 102.92521 | 6908 ft | 29 kts | 130° |
| 2026-05-05 13:03 | 25.10576 | 102.92658 | 6910 ft | 26 kts | 149° |
| 2026-05-05 13:04 | 25.10465 | 102.92609 | 6908 ft | 18 kts | 229° |
| 2026-05-05 13:04 | 25.10365 | 102.92516 | 6905 ft | 20 kts | 221° |
| 2026-05-05 13:04 | 25.10305 | 102.92460 | 6913 ft | 1 kts | 219° |
| 2026-05-05 13:04 | 25.10299 | 102.92454 | 6920 ft | 0 kts | 219° |
| 2026-05-05 13:07 | 25.10298 | 102.92454 | 6920 ft | 0 kts | 219° |